ROMMA est une association bénévole à but non lucratif. Votre soutien est indispensable : ADHERER à ROMMA ou FAIRE un DON

Die - (26, Drôme)

Diois (400 m)   Longitude: 5° 21' 55"E   Latitude: 44° 45' 16"N Station partenaire n°159
 

Détail journalier du     <<     >>

Température Precipitation Humidité Pression Vent Dir Rafale Dir. rafale Ensol.
Heure (°C) (mm) (%) (hPa) (km/h) (km/h) (min)
01:00 4.208510263SSO10NE0
02:00 3.408410262N8N0
03:00 3.808510262NE10SSO0
04:00 9.106910254N15N0
05:00 10.106110257SE32SE0
06:00 9.706110257SSE27SSE0
07:00 10.205910256SSE23NO0
08:00 10.405710255N26ENE0
09:00 10.805710255NE19S0
10:00 11.105610266SE24S20
11:00 11.405610265SE18ESE0
12:00 12.005610266ESE23NE0
13:00 12.705510266ESE23SO0
14:00 11.406610266E19E0
15:00 11.406310264SSO19S0
16:00 11.306710273SSO16SSO0
17:00 10.706710274ESE21ESE10
18:00 10.007210283N11S0
19:00 7.2080102803NO0
20:00 5.308510291ONO3NO0
21:00 3.108810291SSE3SSE0
22:00 2.2091103003SSE0
23:00 1.5093103003SSE0
minuit 0.7093103003SSE0

Graphique du 15-01-2020

 

Serveur OMMA